• Join FlightAware (Why Join?)
  • Login
  • US Flag 
10:43PM EDT


 

Airport Tracker/Info


-or-


 

Live Flight TrackerFlight Track Log ✈ ASQ5311 ✈ 25-Apr-2014 ✈ KLGA - KBGR

Flight Track Log - Related Links

Times and Time Zones

All times are in EDT time to prevent confusion due to time zone crossing. See the ASQ5311 flight status page for this flight to view local times or setup timezone preferences in your user account.

Time Position Orientation Groundspeed Altitude Reporting Facility
EDT Latitude Longitude Course Direction KTS MPH feet Rate Location/Type
10:29PM 40.7389 -73.8394 37° Northeast 149 171 2,600  Level Boston Center
10:30PM 40.7597 -73.7794 65° Northeast 243 280 4,600 1,980 Climbing Boston Center
10:31PM 40.8311 -73.7289 28° Northeast 283 326 6,700 2,400 Climbing Boston Center
10:32PM 40.9047 -73.6697 31° Northeast 304 350 9,500 2,040 Climbing Boston Center
10:33PM 40.9903 -73.6178 25° Northeast 346 398 10,900 1,500 Climbing Boston Center
10:34PM 41.3212 -73.4288 37° Northeast  Level FlightAware Approximate
10:34PM 41.0978 -73.5481 26° Northeast 384 442 12,600  Level Boston Center
10:35PM 41.2000 -73.4858 25° Northeast 401 461 14,700 1,860 Climbing Boston Center
10:36PM 41.3028 -73.4244 24° Northeast 404 465 16,400 1,380 Climbing Boston Center
10:37PM 41.4053 -73.3611 25° Northeast 404 465 17,600 1,260 Climbing Boston Center
10:38PM 41.5044 -73.2994 25° Northeast 425 489 19,000 1,500 Climbing Boston Center
10:39PM 41.6353 -73.3089 357° North 423 487 20,700 1,560 Climbing Boston Center
10:40PM 41.7556 -73.3136 358° North 430 495 22,200 1,440 Climbing Boston Center
10:41PM 41.8781 -73.3172 359° North 437 503 23,700 1,320 Climbing Boston Center
10:42PM 42.0008 -73.3192 359° North 439 505 25,000 1,140 Climbing Boston Center
10:43PM 42.1283 -73.3222 359° North 449 517 26,000 960 Climbing Boston Center
10:44PM 42.2453 -73.2667 19° North 467 537 27,000 480 Climbing Boston Center
10:45PM 42.3314 -73.1306 49° Northeast 476 548 27,000  Level Boston Center
10:46PM 42.4228 -72.9811 50° Northeast 477 549 27,000  Level Boston Center
10:47PM 42.5114 -72.8367 50° Northeast 486 559 27,000  Level Boston Center
10:48PM 42.5983 -72.6953 50° Northeast 486 559 27,000  Level Boston Center
10:49PM 42.6706 -72.5772 50° Northeast 482 555 27,000  Level Boston Center
10:50PM 42.7567 -72.4358 50° Northeast 482 555 27,000  Level Boston Center
10:51PM 42.8408 -72.2953 51° Northeast 482 555 27,000  Level Boston Center
10:52PM 42.9364 -72.1369 50° Northeast 480 552 27,000  Level Boston Center
10:53PM 43.0197 -71.9981 51° Northeast 478 550 27,000  Level Boston Center
10:54PM 43.1022 -71.8600 51° Northeast 474 545 27,000  Level Boston Center
10:55PM 43.1825 -71.7214 52° Northeast 469 540 27,000  Level Boston Center
10:56PM 43.2664 -71.5828 50° Northeast 470 541 27,000  Level Boston Center
10:57PM 43.3494 -71.4397 51° Northeast 478 550 27,000  Level Boston Center
10:58PM 43.4331 -71.2956 51° Northeast 481 554 27,000  Level Boston Center
10:59PM 43.5183 -71.1511 51° Northeast 482 555 27,000  Level Boston Center
11:00PM 43.6008 -71.0033 52° Northeast 484 557 27,000  Level Boston Center
11:01PM 43.6961 -70.8397 51° Northeast 486 559 27,000  Level Boston Center
11:02PM 43.7808 -70.6897 52° Northeast 489 563 27,000  Level Boston Center
11:03PM 43.8644 -70.5414 52° Northeast 489 563 27,000 -840 Level Boston Center
11:04PM 43.9483 -70.3944 52° Northeast 488 562 25,400 -2,040 Descending Boston Center
11:05PM 44.0317 -70.2478 52° Northeast 485 558 23,000 -2,400 Descending Boston Center
11:06PM 44.1111 -70.1047 52° Northeast 470 541 20,600 -2,520 Descending Boston Center
11:07PM 44.1922 -69.9592 52° Northeast 453 521 18,000 -2,520 Descending Boston Center
11:08PM 44.2672 -69.8247 52° Northeast 444 511 15,600 -2,220 Descending Boston Center
11:09PM 44.3353 -69.6942 54° Northeast 416 479 13,500 -2,040 Descending Boston Center
11:10PM 44.3847 -69.5706 61° Northeast 389 448 11,600 -1,440 Descending Boston Center
11:11PM 44.4325 -69.4511 61° Northeast 355 409 10,700 -1,200 Descending Boston Center
11:12PM 44.4739 -69.3486 60° Northeast 309 356 9,200 -1,500 Descending Boston Center
11:13PM 44.5114 -69.2503 62° Northeast 292 336 7,700 -1,500 Descending Boston Center
11:14PM 44.5486 -69.1564 61° Northeast 281 323 6,200 -1,500 Descending Boston Center
11:15PM 44.5856 -69.0636 61° Northeast 278 320 4,700 -1,500 Descending Boston Center
11:16PM 44.6222 -68.9764 59° Northeast 265 305 3,200 -900 Descending Boston Center
11:17PM 44.6569 -68.8956 59° Northeast 246 283 3,000 -360 Descending Boston Center
11:18PM 44.6858 -68.8242 60° Northeast 215 247 2,500 -480 Descending Boston Center
11:19PM 44.7214 -68.7836 39° Northeast 171 197 2,100 -780 Descending Boston Center
11:20PM 44.7714 -68.7764 North 162 186 1,000 -900 Descending Boston Center
11:21PM 44.7944 -68.8108 313° West 153 176 300 -720 Descending Boston Center
11:23PM 44.8000 -68.8167 50° Northeast  Level FlightAware Approximate